• Join FlightAware (Why Join?)
  • Login
  • US Flag 
04:20AM EDT


 

Airport Tracker/Info


-or-


 

Live Flight TrackerFlight Track Log ✈ FFT919 ✈ 17-Jul-2013 ✈ KTTN - KRDU

Flight Track Log - Related Links

Times and Time Zones

All times are in EDT time to prevent confusion due to time zone crossing. See the FFT919 flight status page for this flight to view local times or setup timezone preferences in your user account.

Time Position Orientation Groundspeed Altitude Reporting Facility
EDT Latitude Longitude Course Direction KTS MPH feet Rate Location/Type
06:53AM 40.2667 -74.8333 217° Southwest 122 140 700  Level Philadelphia TRACON
06:54AM 40.2333 -74.8667 217° Southwest 188 216 1,700 2,100 Climbing Philadelphia TRACON
06:55AM 40.1833 -74.9167 217° Southwest 296 341 4,300 2,580 Climbing Philadelphia TRACON
06:56AM 40.1167 -74.9667 210° Southwest 282 325 6,900 1,320 Climbing Philadelphia TRACON
06:57AM 40.0500 -75.0167 210° Southwest 290 334 7,000 1,260 Climbing Philadelphia TRACON
06:58AM 39.9667 -75.0667 205° Southwest 294 338 9,500 1,500 Climbing Philadelphia TRACON
06:59AM 39.9000 -75.1167 210° Southwest 320 368 10,000 840 Climbing Philadelphia TRACON
07:01AM 39.7464 -75.2272 209° Southwest 406 467 11,900 720 Climbing Washington Center
07:01AM 39.6589 -75.2897 209° Southwest 394 453 12,100 1,320 Climbing Washington Center
07:02AM 39.5592 -75.3225 194° South 381 438 14,500 1,860 Climbing Washington Center
07:04AM 39.4383 -75.3417 187° South 383 441 15,900 1,080 Climbing Washington Center
07:05AM 39.3319 -75.3581 187° South 389 448 16,800 480 Climbing Washington Center
07:06AM 39.2236 -75.3800 189° South 389 448 16,900 540 Climbing Washington Center
07:07AM 39.1133 -75.3964 187° South 389 448 17,900 1,560 Climbing Washington Center
07:08AM 39.0047 -75.4153 188° South 389 448 20,100 1,500 Climbing Washington Center
07:09AM 38.8903 -75.4317 186° South 402 463 21,000 480 Climbing Washington Center
07:09AM 38.7778 -75.4506 187° South 409 471 21,100 1,020 Climbing Washington Center
07:10AM 38.6714 -75.5144 205° Southwest 407 468 23,100 1,980 Climbing Washington Center
07:11AM 38.5714 -75.5917 211° Southwest 412 474 25,100 1,800 Climbing Washington Center
07:13AM 38.4631 -75.6633 207° Southwest 424 488 26,800 1,800 Climbing Washington Center
07:14AM 38.3567 -75.7372 209° Southwest 437 503 28,800 2,160 Climbing Washington Center
07:14AM 38.2522 -75.8086 208° Southwest 437 503 31,200 1,560 Climbing Washington Center
07:16AM 38.1497 -75.8794 209° Southwest 437 503 32,000 360 Climbing Washington Center
07:16AM 38.0475 -75.9531 210° Southwest 437 503 32,000  Level Washington Center
07:17AM 37.9431 -76.0261 209° Southwest 431 496 32,000  Level Washington Center
07:19AM 37.8300 -76.1019 208° Southwest 444 511 32,000  Level Washington Center
07:19AM 37.7192 -76.1800 209° Southwest 455 524 32,000 -420 Level Washington Center
07:20AM 37.6061 -76.2578 209° Southwest 462 532 31,200 -1,560 Descending Washington Center
07:21AM 37.4953 -76.3353 209° Southwest 462 532 28,900 -2,220 Descending Washington Center
07:23AM 37.3861 -76.4075 208° Southwest 456 525 26,700 -2,220 Descending Washington Center
07:23AM 37.2814 -76.4794 209° Southwest 444 511 24,500 -1,560 Descending Washington Center
07:25AM 37.2014 -76.5853 227° Southwest 420 483 23,700 -660 Descending Washington Center
07:26AM 37.1294 -76.6964 231° Southwest 420 483 23,200 -360 Descending Washington Center
07:27AM 37.0617 -76.8047 232° Southwest 413 475 23,000 -120 Descending Washington Center
07:27AM 36.9958 -76.9078 231° Southwest 398 458 23,000  Level Washington Center
07:29AM 36.9239 -77.0131 229° Southwest 398 458 23,000 -480 Level Washington Center
07:29AM 36.8578 -77.1183 232° Southwest 393 452 22,100 -900 Descending Washington Center
07:31AM 36.7897 -77.2233 231° Southwest 393 452 21,300 -600 Descending Washington Center
07:32AM 36.7214 -77.3281 231° Southwest 393 452 21,000 -180 Descending Washington Center
07:32AM 36.6531 -77.4353 232° Southwest 393 452 21,000  Level Washington Center
07:34AM 36.5847 -77.5397 231° Southwest 393 452 21,000  Level Washington Center
07:35AM 36.5161 -77.6414 230° Southwest 393 452 21,000  Level Washington Center
07:36AM 36.4475 -77.7481 231° Southwest 393 452 21,000 -1,140 Level Washington Center
07:36AM 36.3789 -77.8519 231° Southwest 393 452 18,800 -2,220 Descending Washington Center
07:37AM 36.3403 -77.9075 229° Southwest 400 460 17,700 -1,980 Descending Washington Center
07:38AM 36.3100 -77.9583 234° Southwest 393 452 16,800 -1,740 Descending Washington Center
07:39AM 36.2453 -78.0592 232° Southwest 387 445 15,100 -1,680 Descending Washington Center
07:39AM 36.1789 -78.1525 229° Southwest 382 440 13,600 -1,500 Descending Washington Center
07:40AM 36.1306 -78.2536 239° Southwest 354 407 12,200 -1,380 Descending Washington Center
07:41AM 36.0806 -78.3522 238° Southwest 343 395 10,900 -1,200 Descending Washington Center
07:43AM 36.0386 -78.4406 240° Southwest 336 387 9,800 -1,260 Descending Washington Center
07:44AM 35.9906 -78.5364 238° Southwest 326 375 8,400 -900 Descending Washington Center
07:45AM 35.9242 -78.6058 220° Southwest 316 364 8,000 -240 Descending Washington Center
07:45AM 35.8578 -78.6675 217° Southwest 311 358 8,000 -540 Level Washington Center
07:46AM 35.8061 -78.7269 223° Southwest 292 336 7,000 -1,320 Descending Washington Center
07:48AM 35.7328 -78.8161 225° Southwest 253 291 4,900 -1,500 Descending Washington Center
07:49AM 35.7500 -78.8756 290° West 201 231 3,300 -1,440 Descending Washington Center
07:50AM 35.7981 -78.8803 355° North 179 206 2,000 -960 Descending Washington Center
07:51AM 35.8342 -78.8561 28° Northeast 133 153 1,500 -600 Descending Washington Center
07:52AM 35.8578 -78.8264 46° Northeast 123 142 900 -720 Descending Washington Center
07:54AM 35.8667 -78.7833 39° Northeast  Level FlightAware Approximate
08:01AM 35.8776 -78.7875 39° Northeast  Level Estimated
08:02AM 35.8776 -78.7875 39° Northeast  Level Estimated